createdAt,value
2017-10-19T00:01:40.924Z,39.70
2017-10-19T00:04:09.226Z,36.90
2017-10-19T00:06:37.477Z,39.93
2017-10-19T00:09:05.763Z,41.90
2017-10-19T00:11:34.046Z,36.50
2017-10-19T00:14:02.361Z,39.53
2017-10-19T00:16:31.374Z,37.47
2017-10-19T00:18:59.987Z,38.80
2017-10-19T00:21:28.235Z,73.67
2017-10-19T00:23:56.615Z,75.20
2017-10-19T00:26:24.926Z,60.37
2017-10-19T00:28:53.159Z,68.23
2017-10-19T00:31:21.423Z,96.67
2017-10-19T00:33:50.489Z,37.40
2017-10-19T00:36:18.750Z,41.73
2017-10-19T00:38:47.010Z,47.40
2017-10-19T00:41:15.315Z,42.40
2017-10-19T00:43:43.605Z,44.07
2017-10-19T00:46:12.640Z,39.93
2017-10-19T00:48:40.952Z,36.97
2017-10-19T00:51:09.221Z,52.57
2017-10-19T00:53:38.260Z,68.53
2017-10-19T00:56:07.316Z,58.77
2017-10-19T00:58:35.568Z,36.70
2017-10-19T01:01:03.827Z,38.60
2017-10-19T01:03:32.136Z,40.30
2017-10-19T01:06:00.387Z,43.53
2017-10-19T01:08:28.631Z,39.13
2017-10-19T01:10:57.686Z,35.03
2017-10-19T01:13:25.926Z,35.20
2017-10-19T01:15:54.202Z,36.20
2017-10-19T01:18:22.535Z,41.47
2017-10-19T01:20:51.563Z,36.97
2017-10-19T01:23:19.824Z,39.40
2017-10-19T01:25:48.928Z,52.37
2017-10-19T01:28:17.202Z,36.70
2017-10-19T01:30:45.486Z,38.47
2017-10-19T01:33:13.796Z,36.80
2017-10-19T01:35:42.085Z,38.80
2017-10-19T01:38:10.365Z,39.67
2017-10-19T01:40:38.688Z,67.00
2017-10-19T01:43:06.961Z,37.57
2017-10-19T01:45:35.256Z,86.00
2017-10-19T01:48:03.562Z,82.97
2017-10-19T01:50:31.825Z,41.80
2017-10-19T01:53:00.111Z,56.87
2017-10-19T01:55:28.499Z,115.37
2017-10-19T01:57:56.804Z,151.33
2017-10-19T02:00:25.853Z,107.47
2017-10-19T02:02:54.187Z,145.90
2017-10-19T02:05:22.468Z,171.20
2017-10-19T02:07:50.757Z,244.00
2017-10-19T02:10:19.046Z,318.73
2017-10-19T02:12:47.313Z,238.50
2017-10-19T02:15:15.584Z,251.10
2017-10-19T02:17:43.962Z,165.70
2017-10-19T02:20:12.257Z,235.83
2017-10-19T02:22:40.529Z,280.50
2017-10-19T02:25:08.831Z,386.63
2017-10-19T02:27:37.095Z,318.77
2017-10-19T02:30:05.381Z,361.93
2017-10-19T02:32:33.693Z,251.93
2017-10-19T02:35:02.001Z,338.90
2017-10-19T02:37:30.266Z,247.03
2017-10-19T02:39:58.580Z,235.27
2017-10-19T02:42:26.855Z,304.53
2017-10-19T02:44:55.150Z,249.80
2017-10-19T02:47:23.439Z,303.30
2017-10-19T02:49:51.727Z,254.43
2017-10-19T02:52:20.781Z,215.00
2017-10-19T02:54:49.099Z,194.97
2017-10-19T02:57:17.352Z,122.07
2017-10-19T02:59:45.599Z,42.80
2017-10-19T03:02:13.902Z,55.67
2017-10-19T03:04:42.931Z,180.73
2017-10-19T03:07:11.192Z,273.93
2017-10-19T03:09:40.397Z,294.03
2017-10-19T03:12:08.675Z,129.73
2017-10-19T03:14:36.951Z,256.97
2017-10-19T03:17:05.294Z,212.53
2017-10-19T03:19:34.305Z,97.20
2017-10-19T03:22:02.602Z,193.33
2017-10-19T03:24:30.924Z,249.23
2017-10-19T03:26:59.202Z,219.83
2017-10-19T03:29:27.452Z,310.53
2017-10-19T03:31:55.745Z,282.13
2017-10-19T03:34:23.987Z,121.33
2017-10-19T03:36:52.235Z,229.93
2017-10-19T03:39:21.299Z,213.50
2017-10-19T03:41:49.565Z,184.03
2017-10-19T03:44:17.814Z,228.73
2017-10-19T03:46:46.159Z,396.77
2017-10-19T03:49:15.171Z,212.73
2017-10-19T03:51:43.433Z,154.27
2017-10-19T03:54:11.738Z,410.90
2017-10-19T03:56:39.979Z,359.20
2017-10-19T03:59:09.024Z,378.43
2017-10-19T04:01:37.324Z,236.83
2017-10-19T04:04:05.593Z,258.03
2017-10-19T04:06:33.847Z,461.90
2017-10-19T04:09:02.150Z,394.47
2017-10-19T04:11:30.399Z,438.30
2017-10-19T04:13:58.644Z,420.00
2017-10-19T04:16:26.936Z,634.00
2017-10-19T04:18:55.179Z,94.50
2017-10-19T04:21:24.226Z,357.57
2017-10-19T04:23:52.542Z,83.07
2017-10-19T04:26:20.796Z,605.67
2017-10-19T04:28:49.822Z,408.13
2017-10-19T04:31:18.886Z,489.77
2017-10-19T04:33:47.140Z,657.10
2017-10-19T04:36:15.412Z,542.43
2017-10-19T04:38:43.716Z,443.60
2017-10-19T04:41:12.000Z,339.83
2017-10-19T04:43:40.241Z,523.90
2017-10-19T04:46:08.568Z,358.40
2017-10-19T04:48:36.839Z,356.20
2017-10-19T04:51:05.877Z,495.70
2017-10-19T04:53:34.186Z,336.60
2017-10-19T04:56:02.416Z,315.20
2017-10-19T04:58:31.446Z,449.00
2017-10-19T05:00:59.778Z,268.53
2017-10-19T05:03:28.028Z,366.03
2017-10-19T05:05:56.270Z,369.20
2017-10-19T05:08:25.377Z,259.57
2017-10-19T05:10:53.635Z,416.27
2017-10-19T05:13:21.889Z,381.67
2017-10-19T05:15:50.204Z,295.87
2017-10-19T05:18:18.499Z,483.13
2017-10-19T05:20:46.780Z,253.20
2017-10-19T05:23:15.871Z,262.77
2017-10-19T05:25:44.931Z,369.87
2017-10-19T05:28:13.214Z,385.43
2017-10-19T05:30:41.524Z,285.77
2017-10-19T05:33:10.558Z,376.20
2017-10-19T05:35:38.827Z,251.83
2017-10-19T05:38:08.220Z,331.13
2017-10-19T05:40:37.347Z,402.47
2017-10-19T05:43:05.664Z,227.87
2017-10-19T05:45:35.071Z,291.90
2017-10-19T05:48:04.100Z,274.83
2017-10-19T05:50:32.353Z,218.73
2017-10-19T05:53:00.708Z,246.77
2017-10-19T05:55:29.755Z,291.33
2017-10-19T05:57:58.064Z,283.27
2017-10-19T06:00:26.375Z,166.37
2017-10-19T06:02:54.638Z,109.33
2017-10-19T06:05:23.648Z,65.53
2017-10-19T06:07:51.961Z,376.57
2017-10-19T06:10:20.259Z,112.63
2017-10-19T06:12:48.551Z,316.43
2017-10-19T06:15:16.864Z,147.63
2017-10-19T06:17:45.127Z,325.23
2017-10-19T06:20:13.435Z,437.80
2017-10-19T06:22:41.762Z,240.43
2017-10-19T06:25:10.805Z,214.90
2017-10-19T06:27:39.099Z,360.50
2017-10-19T06:30:08.205Z,129.17
2017-10-19T06:32:36.478Z,428.17
2017-10-19T06:35:04.742Z,368.77
2017-10-19T06:37:33.212Z,318.87
2017-10-19T06:40:01.475Z,179.30
2017-10-19T06:42:29.786Z,203.03
2017-10-19T06:44:58.087Z,174.37
2017-10-19T06:47:27.098Z,71.07
2017-10-19T06:49:55.372Z,406.13
2017-10-19T06:52:23.660Z,156.80
2017-10-19T06:54:51.942Z,211.37
2017-10-19T06:57:20.275Z,253.23
2017-10-19T06:59:50.167Z,177.17
2017-10-19T07:02:18.459Z,117.27
2017-10-19T07:04:46.754Z,409.10
2017-10-19T07:07:15.868Z,185.87
2017-10-19T07:09:44.175Z,256.37
2017-10-19T07:12:12.473Z,357.20
2017-10-19T07:14:40.796Z,164.07
2017-10-19T07:17:09.051Z,332.20
2017-10-19T07:19:38.190Z,54.40
2017-10-19T07:22:06.531Z,259.30
2017-10-19T07:24:35.567Z,255.37
2017-10-19T07:27:04.678Z,207.17
2017-10-19T07:29:33.090Z,193.67
2017-10-19T07:32:02.476Z,192.90
2017-10-19T07:34:30.949Z,143.40
2017-10-19T07:37:00.038Z,95.30
2017-10-19T07:39:28.349Z,244.20
2017-10-19T07:41:57.382Z,205.77
2017-10-19T07:44:25.745Z,61.63
2017-10-19T07:46:54.157Z,150.97
2017-10-19T07:49:22.521Z,188.23
2017-10-19T07:51:50.858Z,63.87
2017-10-19T07:54:19.158Z,104.93
2017-10-19T07:56:47.420Z,143.57
2017-10-19T07:59:15.715Z,170.17
2017-10-19T08:01:43.969Z,49.30
2017-10-19T08:04:12.257Z,64.40
2017-10-19T08:06:40.692Z,48.63
2017-10-19T08:09:08.953Z,72.70
2017-10-19T08:11:37.205Z,115.57
2017-10-19T08:14:05.489Z,121.80
2017-10-19T08:16:33.745Z,50.73
2017-10-19T08:19:02.104Z,221.47
2017-10-19T08:21:30.355Z,162.33
2017-10-19T08:23:59.368Z,214.43
2017-10-19T08:26:27.649Z,141.83
2017-10-19T08:28:56.378Z,245.30
2017-10-19T08:31:27.303Z,86.00
2017-10-19T08:34:00.343Z,132.63
2017-10-19T08:36:28.628Z,143.87
2017-10-19T08:38:58.499Z,129.43
2017-10-19T08:41:26.939Z,64.63
2017-10-19T08:43:57.904Z,126.53
2017-10-19T08:46:26.433Z,103.33
2017-10-19T08:48:55.459Z,127.53
2017-10-19T08:51:23.796Z,176.70
2017-10-19T08:53:52.817Z,203.27
2017-10-19T08:56:21.057Z,43.40
2017-10-19T08:58:50.112Z,52.00
2017-10-19T09:01:22.648Z,125.43
2017-10-19T09:03:51.742Z,53.07
2017-10-19T09:06:20.138Z,148.23
2017-10-19T09:08:48.421Z,105.43
2017-10-19T09:11:17.052Z,150.97
2017-10-19T09:13:45.307Z,135.83
2017-10-19T09:16:13.588Z,135.03
2017-10-19T09:18:42.943Z,61.30
2017-10-19T09:21:11.258Z,109.03
2017-10-19T09:23:43.588Z,44.37
2017-10-19T09:26:11.885Z,46.67
2017-10-19T09:28:40.141Z,48.90
2017-10-19T09:31:09.478Z,109.60
2017-10-19T09:33:38.117Z,148.77
2017-10-19T09:36:10.529Z,67.37
2017-10-19T09:38:39.003Z,49.23
2017-10-19T09:41:07.338Z,105.63
2017-10-19T09:43:35.661Z,135.63
2017-10-19T09:46:03.989Z,72.97
2017-10-19T09:48:32.247Z,44.70
2017-10-19T09:51:01.476Z,111.97
2017-10-19T09:53:29.785Z,48.53
2017-10-19T09:55:58.093Z,101.67
2017-10-19T09:58:26.378Z,50.93
2017-10-19T10:00:55.401Z,94.43
2017-10-19T10:03:23.954Z,46.30
2017-10-19T10:05:52.988Z,57.17
2017-10-19T10:08:21.254Z,75.87
2017-10-19T10:10:49.561Z,120.07
2017-10-19T10:13:19.556Z,44.20
2017-10-19T10:15:48.334Z,47.53
2017-10-19T10:18:16.579Z,76.83
2017-10-19T10:20:44.872Z,111.93
2017-10-19T10:23:14.516Z,48.60
2017-10-19T10:25:42.778Z,67.83
2017-10-19T10:28:11.027Z,81.60
2017-10-19T10:30:39.338Z,47.63
2017-10-19T10:33:10.113Z,62.27
2017-10-19T10:35:38.991Z,105.93
2017-10-19T10:38:07.245Z,48.90
2017-10-19T10:40:35.484Z,47.10
2017-10-19T10:43:03.807Z,59.03
2017-10-19T10:45:32.071Z,105.93
2017-10-19T10:48:01.321Z,56.73
2017-10-19T10:50:30.398Z,47.70
2017-10-19T10:52:59.573Z,76.43
2017-10-19T10:55:27.824Z,86.50
2017-10-19T10:57:56.168Z,56.73
2017-10-19T11:00:25.179Z,84.13
2017-10-19T11:02:54.071Z,113.23
2017-10-19T11:05:22.537Z,109.80
2017-10-19T11:07:53.852Z,42.93
2017-10-19T11:10:22.966Z,71.97
2017-10-19T11:12:51.229Z,70.00
2017-10-19T11:15:19.509Z,59.77
2017-10-19T11:17:47.821Z,88.80
2017-10-19T11:20:16.172Z,93.27
2017-10-19T11:22:44.424Z,93.27
2017-10-19T11:25:12.832Z,92.17
2017-10-19T11:27:42.288Z,90.70
2017-10-19T11:30:10.644Z,58.73
2017-10-19T11:32:38.893Z,68.83
2017-10-19T11:35:07.923Z,60.47
2017-10-19T11:37:36.313Z,54.00
2017-10-19T11:40:04.712Z,66.10
2017-10-19T11:42:33.009Z,83.40
2017-10-19T11:45:03.007Z,72.43
2017-10-19T11:47:31.258Z,49.77
2017-10-19T11:50:00.043Z,48.73
2017-10-19T11:52:28.579Z,73.40
2017-10-19T11:54:58.290Z,45.77
2017-10-19T11:57:26.611Z,74.83
2017-10-19T11:59:55.360Z,57.33
2017-10-19T12:02:23.641Z,44.17
2017-10-19T12:04:51.893Z,46.80
2017-10-19T12:07:20.974Z,53.77
2017-10-19T12:09:49.240Z,54.57
2017-10-19T12:12:17.477Z,63.07
2017-10-19T12:14:45.819Z,44.77
2017-10-19T12:17:15.584Z,50.50
2017-10-19T12:19:44.515Z,69.67
2017-10-19T12:22:13.597Z,52.10
2017-10-19T12:24:41.947Z,51.90
2017-10-19T12:27:10.226Z,58.00
2017-10-19T12:29:38.525Z,98.70
2017-10-19T12:32:07.063Z,48.10
2017-10-19T12:34:35.339Z,39.33
2017-10-19T12:37:03.633Z,45.20
2017-10-19T12:39:31.926Z,56.57
2017-10-19T12:42:00.187Z,50.80
2017-10-19T12:44:28.477Z,56.80
2017-10-19T12:46:57.068Z,52.37
2017-10-19T12:49:26.124Z,85.10
2017-10-19T12:51:54.460Z,69.70
2017-10-19T12:54:22.787Z,74.00
2017-10-19T12:56:51.014Z,57.50
2017-10-19T12:59:20.157Z,66.07
2017-10-19T13:01:48.871Z,77.57
2017-10-19T13:04:17.352Z,51.20
2017-10-19T13:06:45.683Z,71.23
2017-10-19T13:09:13.963Z,73.13
2017-10-19T13:11:42.548Z,60.53
2017-10-19T13:14:10.878Z,53.63
2017-10-19T13:16:39.118Z,57.07
2017-10-19T13:19:07.634Z,60.83
2017-10-19T13:21:35.985Z,71.27
2017-10-19T13:24:04.233Z,58.67
2017-10-19T13:26:32.543Z,56.10
2017-10-19T13:29:00.797Z,47.90
2017-10-19T13:31:29.458Z,68.30
2017-10-19T13:33:57.854Z,66.80
2017-10-19T13:36:26.144Z,63.67
2017-10-19T13:38:54.394Z,54.30
2017-10-19T13:41:22.748Z,62.00
2017-10-19T13:43:52.565Z,67.27
2017-10-19T13:46:21.278Z,58.33
2017-10-19T13:48:49.532Z,45.00
2017-10-19T13:51:18.866Z,63.83
2017-10-19T13:53:47.425Z,60.27
2017-10-19T13:56:17.666Z,51.77
2017-10-19T13:58:46.215Z,43.63
2017-10-19T14:01:14.537Z,47.37
2017-10-19T14:03:43.654Z,54.37
2017-10-19T14:06:11.912Z,50.43
2017-10-19T14:08:40.182Z,64.67
2017-10-19T14:11:08.525Z,54.50
2017-10-19T14:13:37.007Z,40.23
2017-10-19T14:16:05.326Z,46.87
2017-10-19T14:18:33.652Z,71.67
2017-10-19T14:21:03.359Z,80.60
2017-10-19T14:23:31.638Z,72.57
2017-10-19T14:25:59.960Z,66.70
2017-10-19T14:28:28.224Z,87.50
2017-10-19T14:30:56.573Z,56.33
2017-10-19T14:33:25.956Z,69.40
2017-10-19T14:35:54.998Z,75.93
2017-10-19T14:38:23.352Z,89.30
2017-10-19T14:40:51.613Z,93.67
2017-10-19T14:43:20.730Z,87.37
2017-10-19T14:45:49.068Z,71.57
2017-10-19T14:48:18.093Z,81.77
2017-10-19T14:50:46.352Z,66.77
2017-10-19T14:53:14.690Z,66.27
2017-10-19T14:55:42.977Z,76.80
2017-10-19T14:58:11.249Z,80.53
2017-10-19T15:00:39.552Z,82.00
2017-10-19T15:03:08.599Z,86.13
2017-10-19T15:05:36.898Z,49.70
2017-10-19T15:08:05.565Z,63.33
2017-10-19T15:10:33.826Z,65.90
2017-10-19T15:13:02.218Z,56.30
2017-10-19T15:15:30.548Z,82.40
2017-10-19T15:17:58.817Z,95.53
2017-10-19T15:20:27.094Z,106.53
2017-10-19T15:22:56.217Z,76.77
2017-10-19T15:25:24.545Z,84.93
2017-10-19T15:27:53.778Z,98.77
2017-10-19T15:30:22.096Z,90.60
2017-10-19T15:32:50.771Z,82.07
2017-10-19T15:35:21.320Z,96.20
2017-10-19T15:37:49.652Z,91.07
2017-10-19T15:40:17.920Z,103.50
2017-10-19T15:42:46.219Z,108.23
2017-10-19T15:45:14.587Z,110.47
2017-10-19T15:47:43.084Z,97.37
2017-10-19T15:50:11.378Z,72.20
2017-10-19T15:52:39.722Z,99.57
2017-10-19T15:55:07.994Z,106.27
2017-10-19T15:57:36.291Z,111.23
2017-10-19T16:00:06.327Z,111.13
2017-10-19T16:02:34.600Z,104.30
2017-10-19T16:05:03.030Z,101.20
2017-10-19T16:07:31.466Z,108.97
2017-10-19T16:09:59.742Z,103.37
2017-10-19T16:12:28.087Z,106.03
2017-10-19T16:14:56.457Z,143.37
2017-10-19T16:17:25.846Z,124.43
2017-10-19T16:19:54.123Z,127.80
2017-10-19T16:22:22.452Z,106.87
2017-10-19T16:24:50.788Z,139.20
2017-10-19T16:27:19.112Z,130.13
2017-10-19T16:29:47.499Z,145.80
2017-10-19T16:32:16.629Z,147.43
2017-10-19T16:34:44.919Z,128.03
2017-10-19T16:37:13.307Z,172.90
2017-10-19T16:39:41.664Z,215.13
2017-10-19T16:42:09.926Z,191.93
2017-10-19T16:44:38.187Z,177.10
2017-10-19T16:47:08.538Z,173.00
2017-10-19T16:49:36.879Z,163.77
2017-10-19T16:52:06.054Z,215.73
2017-10-19T16:54:34.384Z,108.00
2017-10-19T16:57:02.687Z,103.17
2017-10-19T16:59:31.018Z,127.70
2017-10-19T17:01:59.338Z,54.73
2017-10-19T17:04:27.670Z,139.83
2017-10-19T17:06:57.250Z,128.27
2017-10-19T17:09:26.665Z,177.67
2017-10-19T17:11:55.022Z,112.53
2017-10-19T17:14:23.384Z,251.57
2017-10-19T17:16:51.638Z,194.87
2017-10-19T17:19:21.738Z,123.83
2017-10-19T17:21:50.680Z,144.57
2017-10-19T17:24:19.108Z,190.80
2017-10-19T17:26:47.420Z,126.50
2017-10-19T17:29:15.746Z,78.70
2017-10-19T17:31:43.991Z,218.00
2017-10-19T17:34:12.268Z,229.57
2017-10-19T17:36:40.768Z,106.03
2017-10-19T17:39:09.878Z,255.23
2017-10-19T17:41:38.912Z,125.57
2017-10-19T17:44:07.184Z,119.00
2017-10-19T17:46:35.545Z,110.53
2017-10-19T17:49:03.827Z,193.23
2017-10-19T17:51:32.138Z,176.53
2017-10-19T17:54:01.195Z,188.00
2017-10-19T17:56:29.510Z,128.53
2017-10-19T17:58:57.787Z,248.57
2017-10-19T18:01:26.134Z,139.13
2017-10-19T18:03:54.433Z,158.70
2017-10-19T18:06:22.730Z,144.70
2017-10-19T18:08:51.054Z,112.10
2017-10-19T18:11:20.127Z,94.80
2017-10-19T18:13:48.409Z,70.97
2017-10-19T18:16:16.714Z,66.73
2017-10-19T18:18:45.112Z,105.10
2017-10-19T18:21:13.403Z,110.60
2017-10-19T18:23:41.724Z,61.03
2017-10-19T18:26:10.009Z,59.93
2017-10-19T18:28:38.302Z,135.07
2017-10-19T18:31:06.821Z,105.10
2017-10-19T18:33:35.856Z,202.70
2017-10-19T18:36:04.156Z,106.37
2017-10-19T18:38:32.460Z,170.67
2017-10-19T18:41:00.798Z,97.17
2017-10-19T18:43:30.979Z,305.27
2017-10-19T18:46:01.070Z,119.50
2017-10-19T18:48:29.374Z,120.27
2017-10-19T18:50:57.673Z,106.10
2017-10-19T18:53:26.075Z,126.30
2017-10-19T18:55:54.395Z,106.40
2017-10-19T18:58:22.639Z,130.63
2017-10-19T19:00:50.970Z,102.33
2017-10-19T19:03:19.303Z,123.00
2017-10-19T19:05:48.298Z,124.90
2017-10-19T19:08:17.881Z,122.97
2017-10-19T19:10:47.884Z,138.97
2017-10-19T19:13:16.199Z,74.90
2017-10-19T19:15:44.612Z,106.57
2017-10-19T19:18:13.635Z,95.80
2017-10-19T19:20:42.642Z,99.57
2017-10-19T19:23:10.957Z,151.83
2017-10-19T19:25:39.240Z,103.33
2017-10-19T19:28:09.945Z,111.77
2017-10-19T19:30:38.591Z,68.57
2017-10-19T19:33:07.628Z,94.10
2017-10-19T19:35:39.964Z,115.47
2017-10-19T19:38:08.262Z,122.90
2017-10-19T19:40:36.529Z,89.47
2017-10-19T19:43:05.138Z,86.13
2017-10-19T19:45:33.405Z,145.77
2017-10-19T19:48:01.652Z,183.00
2017-10-19T19:50:30.527Z,111.13
2017-10-19T19:52:58.807Z,89.93
2017-10-19T19:55:27.080Z,82.00
2017-10-19T19:57:58.885Z,209.13
2017-10-19T20:00:27.160Z,98.07
2017-10-19T20:02:55.863Z,106.20
2017-10-19T20:05:25.111Z,71.43
2017-10-19T20:07:53.405Z,89.27
2017-10-19T20:10:21.697Z,103.67
2017-10-19T20:12:51.835Z,89.90
2017-10-19T20:15:20.101Z,54.47
2017-10-19T20:17:48.387Z,80.73
2017-10-19T20:20:17.450Z,61.40
2017-10-19T20:22:46.670Z,54.87
2017-10-19T20:25:14.991Z,94.93
2017-10-19T20:27:43.267Z,94.80
2017-10-19T20:30:11.542Z,79.80
2017-10-19T20:32:39.930Z,107.10
2017-10-19T20:35:08.315Z,81.30
2017-10-19T20:37:36.577Z,70.40
2017-10-19T20:40:04.950Z,164.63
2017-10-19T20:42:33.280Z,102.83
2017-10-19T20:45:01.580Z,86.93
2017-10-19T20:47:30.655Z,126.43
2017-10-19T20:49:59.002Z,117.83
2017-10-19T20:52:27.447Z,162.70
2017-10-19T20:54:55.702Z,121.00
2017-10-19T20:57:24.738Z,82.97
2017-10-19T20:59:53.025Z,115.27
2017-10-19T21:02:21.387Z,171.20
2017-10-19T21:04:49.788Z,186.13
2017-10-19T21:07:18.230Z,100.80
2017-10-19T21:09:46.735Z,133.97
2017-10-19T21:12:15.906Z,152.67
2017-10-19T21:14:44.207Z,154.13
2017-10-19T21:17:12.559Z,128.40
2017-10-19T21:19:40.882Z,112.67
2017-10-19T21:22:09.158Z,90.20
2017-10-19T21:24:37.483Z,117.60
2017-10-19T21:27:06.587Z,116.67
2017-10-19T21:29:34.872Z,92.80
2017-10-19T21:32:03.175Z,133.80
2017-10-19T21:34:31.548Z,121.23
2017-10-19T21:36:59.849Z,72.53
2017-10-19T21:39:28.328Z,169.83
2017-10-19T21:41:56.575Z,109.10
2017-10-19T21:44:24.831Z,88.83
2017-10-19T21:46:53.170Z,81.93
2017-10-19T21:49:21.479Z,95.43
2017-10-19T21:51:49.745Z,103.03
2017-10-19T21:54:18.811Z,113.53
2017-10-19T21:56:47.104Z,144.13
2017-10-19T21:59:16.128Z,149.70
2017-10-19T22:01:44.504Z,62.80
2017-10-19T22:04:12.767Z,102.07
2017-10-19T22:06:41.724Z,99.93
2017-10-19T22:09:10.045Z,100.37
2017-10-19T22:11:38.301Z,147.90
2017-10-19T22:14:07.313Z,105.83
2017-10-19T22:16:35.632Z,74.13
2017-10-19T22:19:03.875Z,115.17
2017-10-19T22:21:32.131Z,100.87
2017-10-19T22:24:00.412Z,85.47
2017-10-19T22:26:28.677Z,66.80
2017-10-19T22:28:57.704Z,46.50
2017-10-19T22:31:26.022Z,48.67
2017-10-19T22:33:54.272Z,129.67
2017-10-19T22:36:22.505Z,79.63
2017-10-19T22:38:51.132Z,92.67
2017-10-19T22:41:19.387Z,121.43
2017-10-19T22:43:47.678Z,144.17
2017-10-19T22:46:16.012Z,116.97
2017-10-19T22:48:44.279Z,110.00
2017-10-19T22:51:13.299Z,122.17
2017-10-19T22:53:41.643Z,108.90
2017-10-19T22:56:10.756Z,72.60
2017-10-19T22:58:39.833Z,112.23
2017-10-19T23:01:08.897Z,186.00
2017-10-19T23:03:37.149Z,82.70
2017-10-19T23:06:05.467Z,72.23
2017-10-19T23:08:33.716Z,95.60
2017-10-19T23:11:01.952Z,95.20
2017-10-19T23:13:30.288Z,125.27
2017-10-19T23:15:58.562Z,120.93
2017-10-19T23:18:26.898Z,128.27
2017-10-19T23:20:55.163Z,142.50
2017-10-19T23:23:23.437Z,123.63
2017-10-19T23:25:51.807Z,132.00
2017-10-19T23:28:20.072Z,108.00
2017-10-19T23:30:49.164Z,129.57
2017-10-19T23:33:18.232Z,63.90
2017-10-19T23:35:46.508Z,87.57
2017-10-19T23:38:14.846Z,49.67
2017-10-19T23:40:43.106Z,78.30
2017-10-19T23:43:11.366Z,56.53
2017-10-19T23:45:39.701Z,47.43
2017-10-19T23:48:07.964Z,68.27
2017-10-19T23:50:36.220Z,64.63
2017-10-19T23:53:04.553Z,78.80
2017-10-19T23:55:32.856Z,66.50
2017-10-19T23:58:01.130Z,86.33
